Map

Track Data

SID SEASON NUMBER BASIN SUBBASIN NAME ISO_TIME NATURE LAT LON WMO_WIND WMO_PRES WMO_AGENCY TRACK_TYPE DIST2LAND LANDFALL IFLAG USA_AGENCY USA_ATCF_ID USA_LAT USA_LON USA_RECORD USA_STATUS USA_WIND USA_PRES USA_SSHS USA_R34_NE USA_R34_SE USA_R34_SW USA_R34_NW USA_R50_NE USA_R50_SE USA_R50_SW USA_R50_NW USA_R64_NE USA_R64_SE USA_R64_SW USA_R64_NW USA_POCI USA_ROCI USA_RMW USA_EYE TOKYO_LAT TOKYO_LON TOKYO_GRADE TOKYO_WIND TOKYO_PRES TOKYO_R50_DIR TOKYO_R50_LONG TOKYO_R50_SHORT TOKYO_R30_DIR TOKYO_R30_LONG TOKYO_R30_SHORT TOKYO_LAND CMA_LAT CMA_LON CMA_CAT CMA_WIND CMA_PRES HKO_LAT HKO_LON HKO_CAT HKO_WIND HKO_PRES NEWDELHI_LAT NEWDELHI_LON NEWDELHI_GRADE NEWDELHI_WIND NEWDELHI_PRES NEWDELHI_CI NEWDELHI_DP NEWDELHI_POCI REUNION_LAT REUNION_LON REUNION_TYPE REUNION_WIND REUNION_PRES REUNION_TNUM REUNION_CI REUNION_RMW REUNION_R34_NE REUNION_R34_SE REUNION_R34_SW REUNION_R34_NW REUNION_R50_NE REUNION_R50_SE REUNION_R50_SW REUNION_R50_NW REUNION_R64_NE REUNION_R64_SE REUNION_R64_SW REUNION_R64_NW BOM_LAT BOM_LON BOM_TYPE BOM_WIND BOM_PRES BOM_TNUM BOM_CI BOM_RMW BOM_R34_NE BOM_R34_SE BOM_R34_SW BOM_R34_NW BOM_R50_NE BOM_R50_SE BOM_R50_SW BOM_R50_NW BOM_R64_NE BOM_R64_SE BOM_R64_SW BOM_R64_NW BOM_ROCI BOM_POCI BOM_EYE BOM_POS_METHOD BOM_PRES_METHOD NADI_LAT NADI_LON NADI_CAT NADI_WIND NADI_PRES WELLINGTON_LAT WELLINGTON_LON WELLINGTON_WIND WELLINGTON_PRES DS824_LAT DS824_LON DS824_STAGE DS824_WIND DS824_PRES TD9636_LAT TD9636_LON TD9636_STAGE TD9636_WIND TD9636_PRES TD9635_LAT TD9635_LON TD9635_WIND TD9635_PRES TD9635_ROCI NEUMANN_LAT NEUMANN_LON NEUMANN_CLASS NEUMANN_WIND NEUMANN_PRES MLC_LAT MLC_LON MLC_CLASS MLC_WIND MLC_PRES USA_GUST BOM_GUST BOM_GUST_PER REUNION_GUST REUNION_GUST_PER USA_SEAHGT USA_SEARAD_NE USA_SEARAD_SE USA_SEARAD_SW USA_SEARAD_NW STORM_SPEED STORM_DIR
1948307N13147 1948 83 WP MM RITA 1948-11-01 12:00:00 NR 12.5000 146.500 main 1635 1635 __________O___ -1 12.5000 146.500 2 12 270
1948307N13147 1948 83 WP MM RITA 1948-11-01 15:00:00 NR 12.5031 145.874 main 1637 1637 __________P___ -1 12.5031 145.874 2 12 270
1948307N13147 1948 83 WP MM RITA 1948-11-01 18:00:00 NR 12.5042 145.268 main 1642 1642 __________P___ -1 12.5042 145.268 2 11 270
1948307N13147 1948 83 WP MM RITA 1948-11-01 21:00:00 NR 12.5032 144.703 main 1649 1649 __________P___ -1 12.5032 144.703 2 10 270
1948307N13147 1948 83 WP MM RITA 1948-11-02 00:00:00 NR 12.5000 144.200 main 1657 1657 __________O___ -1 12.5000 144.200 2 9 270
1948307N13147 1948 83 WP MM RITA 1948-11-02 03:00:00 NR 12.4967 143.770 main 1664 1664 __________P___ -1 12.4967 143.770 2 8 270
1948307N13147 1948 83 WP MM RITA 1948-11-02 06:00:00 NR 12.5039 143.385 main 1673 1666 __________P___ -1 12.5039 143.385 2 7 273
1948307N13147 1948 83 WP MM RITA 1948-11-02 09:00:00 NR 12.5342 143.007 main 1666 1662 __________P___ -1 12.5342 143.007 2 8 277
1948307N13147 1948 83 WP MM RITA 1948-11-02 12:00:00 NR 12.6000 142.600 main 1663 1657 __________O___ -1 12.6000 142.600 2 9 281
1948307N13147 1948 83 WP MM RITA 1948-11-02 15:00:00 NR 12.7102 142.099 main 1659 1648 __________P___ -1 12.7102 142.099 2 10 284
1948307N13147 1948 83 WP MM RITA 1948-11-02 18:00:00 NR 12.8553 141.565 main 1658 1646 __________P___ -1 12.8553 141.565 2 11 287
1948307N13147 1948 83 WP MM RITA 1948-11-02 21:00:00 NR 13.0227 141.024 main 1645 1617 __________P___ -1 13.0227 141.024 2 11 288
1948307N13147 1948 83 WP MM RITA 1948-11-03 00:00:00 NR 13.2000 140.500 main 1617 1565 __________O___ -1 13.2000 140.500 2 10 289
1948307N13147 1948 83 WP MM RITA 1948-11-03 03:00:00 NR 13.3553 140.020 main 1567 1526 __________P___ -1 13.3553 140.020 2 10 289
1948307N13147 1948 83 WP MM RITA 1948-11-03 06:00:00 NR 13.5196 139.562 main 1526 1476 __________P___ -1 13.5196 139.562 2 9 292
1948307N13147 1948 83 WP MM RITA 1948-11-03 09:00:00 NR 13.6991 139.123 main 1476 1438 __________P___ -1 13.6991 139.123 2 9 294
1948307N13147 1948 83 WP MM RITA 1948-11-03 12:00:00 NR 13.9000 138.700 main 1438 1400 __________O___ -1 13.9000 138.700 2 9 298
1948307N13147 1948 83 WP MM RITA 1948-11-03 15:00:00 NR 14.1240 138.289 main 1400 1363 __________P___ -1 14.1240 138.289 2 9 301
1948307N13147 1948 83 WP MM RITA 1948-11-03 18:00:00 NR 14.3695 137.892 main 1364 1326 __________P___ -1 14.3695 137.892 2 9 303
1948307N13147 1948 83 WP MM RITA 1948-11-03 21:00:00 NR 14.6303 137.499 main 1326 1290 __________P___ -1 14.6303 137.499 2 9 305
1948307N13147 1948 83 WP MM RITA 1948-11-04 00:00:00 NR 14.9000 137.100 main 1290 1253 __________O___ -1 14.9000 137.100 2 10 305
1948307N13147 1948 83 WP MM RITA 1948-11-04 03:00:00 NR 15.1837 136.694 main 1256 1244 __________P___ -1 15.1837 136.694 2 9 319
1948307N13147 1948 83 WP MM RITA 1948-11-04 06:00:00 TS 15.6126 136.460 main 1247 1185 O________OPO__ jtwc_wp WP221948 15.8000 136.700 40 0 15.8000 136.700 TC 40 15.4720 136.280 2 15.8000 136.700 40 985 360 11 309
1948307N13147 1948 83 WP MM RITA 1948-11-04 09:00:00 TS 15.8973 135.781 main 1185 1113 P________PPP__ WP221948 15.9959 135.735 42 0 15.9959 135.735 TC 42 15.7493 135.851 2 15.9959 135.735 42 982 360 15 290
1948307N13147 1948 83 WP MM RITA 1948-11-04 12:00:00 TS 16.1385 134.985 main 1113 1048 O________OOO__ jtwc_wp WP221948 16.2000 134.800 45 0 16.2000 134.800 TC 45 16.0000 135.400 2 45 16.2000 134.800 45 980 360 16 287
1948307N13147 1948 83 WP MM RITA 1948-11-04 15:00:00 TS 16.3723 134.170 main 1048 992 P________PPP__ WP221948 16.4271 133.920 47 0 16.4271 133.920 TC 47 16.2077 134.921 2 46 16.4271 133.920 47 978 420 16 288
1948307N13147 1948 83 WP MM RITA 1948-11-04 18:00:00 TS 16.6218 133.430 main 983 936 O________OPO__ jtwc_wp WP221948 16.7000 133.100 50 0 16.7000 133.100 TC 50 16.3873 134.422 2 47 16.7000 133.100 50 976 480 15 291
1948307N13147 1948 83 WP MM RITA 1948-11-04 21:00:00 TS 16.9304 132.668 main 936 903 P________PPP__ WP221948 17.0577 132.253 50 0 17.0577 132.253 TC 50 16.5483 133.912 2 48 17.0577 132.253 50 974 450 15 295
1948307N13147 1948 83 WP MM RITA 1948-11-05 00:00:00 TS 17.2250 132.050 main 903 874 O________OOO__ jtwc_wp WP221948 17.4000 131.600 50 0 17.4000 131.600 TC 50 16.7000 133.400 2 50 17.4000 131.600 50 973 420 10 299
1948307N13147 1948 83 WP MM RITA 1948-11-05 03:00:00 TS 17.4389 131.711 main 874 865 P________PPP__ WP221948 17.6370 131.317 52 0 17.6370 131.317 TC 52 16.8448 132.891 2 51 17.6370 131.317 52 971 390 6 305
1948307N13147 1948 83 WP MM RITA 1948-11-05 06:00:00 TS 17.5962 131.496 main 865 842 O________OPO__ jtwc_wp WP221948 17.8000 131.200 55 0 17.8000 131.200 TC 55 16.9847 132.384 2 52 17.8000 131.200 55 970 360 6 300
1948307N13147 1948 83 WP MM RITA 1948-11-05 09:00:00 TS 17.7137 131.210 main 842 830 P________PPP__ WP221948 17.9075 130.985 55 0 17.9075 130.985 TC 55 17.1323 131.885 2 53 17.9075 130.985 55 968 390 6 294
1948307N13147 1948 83 WP MM RITA 1948-11-05 12:00:00 TS 17.8250 130.950 main 830 817 O________OOO__ jtwc_wp WP221948 18.0000 130.800 55 0 18.0000 130.800 TC 55 17.3000 131.400 2 55 18.0000 130.800 55 967 420 5 303
1948307N13147 1948 83 WP MM RITA 1948-11-05 15:00:00 TS 18.0000 130.745 main 815 812 P________PPP__ WP221948 18.1574 130.692 55 0 18.1574 130.692 TC 55 17.5278 130.904 2 55 18.1574 130.692 55 966 450 5 313
1948307N13147 1948 83 WP MM RITA 1948-11-05 18:00:00 TS 18.1681 130.556 main 818 801 O________OPO__ jtwc_wp WP221948 18.3000 130.600 55 0 18.3000 130.600 TC 55 17.7726 130.426 2 55 18.3000 130.600 55 965 480 5 306
1948307N13147 1948 83 WP MM RITA 1948-11-05 21:00:00 TS 18.2696 130.356 main 808 783 P________PPP__ WP221948 18.3574 130.480 55 0 18.3574 130.480 TC 55 18.0060 129.985 2 55 18.3574 130.480 55 964 450 4 294
1948307N13147 1948 83 WP MM RITA 1948-11-06 00:00:00 TS 18.3500 130.125 main 790 773 O________OOO__ jtwc_wp WP221948 18.4000 130.300 55 0 18.4000 130.300 TC 55 18.2000 129.600 2 55 18.4000 130.300 55 963 420 5 290
1948307N13147 1948 83 WP MM RITA 1948-11-06 03:00:00 TS 18.4498 129.846 main 765 757 P________PPP__ WP221948 18.4925 130.030 55 0 18.4925 130.030 TC 55 18.3215 129.296 2 55 18.4925 130.030 55 962 390 6 290
1948307N13147 1948 83 WP MM RITA 1948-11-06 06:00:00 TS 18.5504 129.537 main 756 727 O________OPO__ jtwc_wp WP221948 18.6000 129.700 55 0 18.6000 129.700 TC 55 18.4017 129.047 2 55 18.6000 129.700 55 961 360 6 288
1948307N13147 1948 83 WP MM RITA 1948-11-06 09:00:00 TS 18.6446 129.230 main 727 696 P________PPP__ WP221948 18.7074 129.365 55 0 18.7074 129.365 TC 55 18.4560 128.824 2 55 18.7074 129.365 55 960 360 6 286
1948307N13147 1948 83 WP MM RITA 1948-11-06 12:00:00 TS 18.7250 128.900 main 696 665 O________OOO__ jtwc_wp WP221948 18.8000 129.000 55 0 18.8000 129.000 TC 55 18.5000 128.600 2 55 18.8000 129.000 55 959 360 7 282
1948307N13147 1948 83 WP MM RITA 1948-11-06 15:00:00 TS 18.7824 128.534 main 654 623 P________PPP__ WP221948 18.8575 128.600 57 0 18.8575 128.600 TC 57 18.5571 128.336 2 61 18.8575 128.600 57 958 360 7 278
1948307N13147 1948 83 WP MM RITA 1948-11-06 18:00:00 TS 18.8268 128.166 main 623 582 O________OPO__ jtwc_wp WP221948 18.9000 128.200 60 0 18.9000 128.200 TC 60 18.6073 128.065 2 67 18.9000 128.200 60 958 360 7 278
1948307N13147 1948 83 WP MM RITA 1948-11-06 21:00:00 TS 18.8815 127.828 main 582 550 P________PPP__ WP221948 18.9574 127.843 70 1 18.9574 127.843 TC 70 18.6539 127.786 2 73 18.9574 127.843 70 957 360 6 279
1948307N13147 1948 83 WP MM RITA 1948-11-07 00:00:00 TS 18.9250 127.500 main 550 519 O________OOO__ jtwc_wp WP221948 19.0000 127.500 80 1 19.0000 127.500 TC 80 18.7000 127.500 3 80 19.0000 127.500 80 957 360 6 276
1948307N13147 1948 83 WP MM RITA 1948-11-07 03:00:00 TS 18.9409 127.180 main 519 487 P________PPP__ WP221948 19.0073 127.165 90 2 19.0073 127.165 TC 90 18.7416 127.223 3 85 19.0073 127.165 90 957 360 6 272
1948307N13147 1948 83 WP MM RITA 1948-11-07 06:00:00 TS 18.9461 126.834 main 477 437 O________OPO__ jtwc_wp WP221948 19.0000 126.800 100 3 19.0000 126.800 TC 100 18.7846 126.937 3 90 19.0000 126.800 100 957 360 7 271
1948307N13147 1948 83 WP MM RITA 1948-11-07 09:00:00 TS 18.9589 126.415 main 437 395 P________PPP__ WP221948 19.0001 126.343 100 3 19.0001 126.343 TC 100 18.8353 126.633 3 95 19.0001 126.343 100 957 390 8 272
1948307N13147 1948 83 WP MM RITA 1948-11-07 12:00:00 TS 18.9750 126.000 main 395 364 O________OOO__ jtwc_wp WP221948 19.0000 125.900 100 3 19.0000 125.900 TC 100 18.9000 126.300 4 100 19.0000 125.900 100 957 420 7 273
1948307N13147 1948 83 WP MM RITA 1948-11-07 15:00:00 TS 18.9993 125.673 main 364 333 P________PPP__ WP221948 18.9998 125.585 95 2 18.9998 125.585 TC 95 18.9977 125.937 4 96 18.9998 125.585 95 958 420 6 275
1948307N13147 1948 83 WP MM RITA 1948-11-07 18:00:00 TS 19.0268 125.361 main 333 294 O________OPO__ jtwc_wp WP221948 19.0000 125.300 90 2 19.0000 125.300 TC 90 19.1073 125.545 4 92 19.0000 125.300 90 959 420 6 275
1948307N13147 1948 83 WP MM RITA 1948-11-07 21:00:00 TS 19.0533 124.995 main 294 254 P________PPP__ WP221948 19.0000 124.950 87 2 19.0000 124.950 TC 87 19.2132 125.131 4 88 19.0000 124.950 87 959 390 7 274
1948307N13147 1948 83 WP MM RITA 1948-11-08 00:00:00 TS 19.0750 124.625 main 254 224 O________OOO__ jtwc_wp WP221948 19.0000 124.600 85 2 19.0000 124.600 TC 85 19.3000 124.700 4 85 19.0000 124.600 85 960 360 6 272
1948307N13147 1948 83 WP MM RITA 1948-11-08 03:00:00 TS 19.0786 124.325 main 224 195 P________PPP__ WP221948 18.9921 124.345 82 1 18.9921 124.345 TC 82 19.3383 124.264 4 80 18.9921 124.345 82 961 390 6 271
1948307N13147 1948 83 WP MM RITA 1948-11-08 06:00:00 TS 19.0893 123.954 main 195 139 O________OPO__ jtwc_wp WP221948 19.0000 124.000 80 1 19.0000 124.000 TC 80 19.3573 123.814 4 75 19.0000 124.000 80 962 420 9 273
1948307N13147 1948 83 WP MM RITA 1948-11-08 09:00:00 TS 19.1197 123.380 main 139 103 P________PPP__ WP221948 19.0354 123.387 72 1 19.0354 123.387 TC 72 19.3726 123.358 4 70 19.0354 123.387 72 963 420 11 274
1948307N13147 1948 83 WP MM RITA 1948-11-08 12:00:00 TS 19.1750 122.750 main 103 89 O________OOO__ jtwc_wp WP221948 19.1000 122.700 65 1 19.1000 122.700 TC 65 19.4000 122.900 4 65 19.1000 122.700 65 965 420 11 277
1948307N13147 1948 83 WP MM RITA 1948-11-08 15:00:00 TS 19.2582 122.219 main 100 94 P________PPP__ WP221948 19.1921 122.150 62 0 19.1921 122.150 TC 62 19.4566 122.426 4 62 19.1921 122.150 62 966 420 10 280
1948307N13147 1948 83 WP MM RITA 1948-11-08 18:00:00 TS 19.3569 121.689 main 105 94 O________OPO__ jtwc_wp WP221948 19.3000 121.600 60 0 19.3000 121.600 TC 60 19.5276 121.955 4 60 19.3000 121.600 60 968 420 10 280
1948307N13147 1948 83 WP MM RITA 1948-11-08 21:00:00 TS 19.4464 121.128 main 91 91 P________PPP__ WP221948 19.3920 121.002 57 0 19.3920 121.002 TC 57 19.6098 121.507 4 57 19.3920 121.002 57 970 390 11 280
1948307N13147 1948 83 WP MM RITA 1948-11-09 00:00:00 TS 19.5500 120.500 main 116 105 O________OOO__ jtwc_wp WP221948 19.5000 120.300 55 0 19.5000 120.300 TC 55 19.7000 121.100 2 55 19.5000 120.300 55 973 360 13 280
1948307N13147 1948 83 WP MM RITA 1948-11-09 03:00:00 TS 19.6872 119.725 main 168 168 P________PPP__ WP221948 19.6508 119.378 50 0 19.6508 119.378 TC 50 19.7962 120.765 2 52 19.6508 119.378 50 975 360 14 281
1948307N13147 1948 83 WP MM RITA 1948-11-09 06:00:00 TS 19.8248 118.992 main 229 229 O________OPO__ jtwc_wp WP221948 19.8000 118.500 45 0 19.8000 118.500 TC 45 19.8991 120.470 2 50 19.8000 118.500 45 978 360 12 282
1948307N13147 1948 83 WP MM RITA 1948-11-09 09:00:00 TS 19.9251 118.491 main 277 277 P________PPP__ WP221948 19.8993 117.925 45 0 19.8993 117.925 TC 45 20.0025 120.190 2 47 19.8993 117.925 45 980 330 9 283
1948307N13147 1948 83 WP MM RITA 1948-11-09 12:00:00 TS 20.0250 118.100 main 317 317 O________OOO__ jtwc_wp WP221948 20.0000 117.500 45 0 20.0000 117.500 TC 45 20.1000 119.900 2 45 20.0000 117.500 45 982 300 8 289
1948307N13147 1948 83 WP MM RITA 1948-11-09 15:00:00 TS 20.1699 117.712 main 326 305 P________PPP__ WP221948 20.1498 117.085 47 0 20.1498 117.085 TC 47 20.2304 119.594 2 46 20.1498 117.085 47 984 270 8 292
1948307N13147 1948 83 WP MM RITA 1948-11-09 18:00:00 TS 20.3117 117.342 main 302 284 O________OPO__ jtwc_wp WP221948 20.3000 116.700 50 0 20.3000 116.700 TC 50 20.3466 119.269 2 47 20.3000 116.700 50 987 240 7 289
1948307N13147 1948 83 WP MM RITA 1948-11-09 21:00:00 TS 20.4092 116.958 main 284 259 P________PPP__ WP221948 20.4074 116.307 50 0 20.4074 116.307 TC 50 20.4146 118.910 2 48 20.4074 116.307 50 989 210 7 283
1948307N13147 1948 83 WP MM RITA 1948-11-10 00:00:00 TS 20.4733 116.593 main 259 249 O________OOO__ jtwc_wp WP221948 20.5000 115.900 50 0 20.5000 115.900 TC 50 20.4000 118.500 2 50 20.5000 115.900 50 991 180 7 279
1948307N13147 1948 83 WP MM RITA 1948-11-10 03:00:00 TS 20.5192 116.195 main 249 242 P________PPP__ WP221948 20.6224 115.465 47 0 20.6224 115.465 TC 47 20.2737 118.020 2 20.5978 115.460 47 993 180 8 272
1948307N13147 1948 83 WP MM RITA 1948-11-10 06:00:00 TS 20.5039 115.767 main 242 235 O________OPO__ jtwc_wp WP221948 20.7000 115.000 45 0 20.7000 115.000 TC 45 20.0628 117.494 2 20.7000 115.000 45 996 180 8 260
1948307N13147 1948 83 WP MM RITA 1948-11-10 09:00:00 TS 20.3795 115.370 main 240 232 P________PP___ WP221948 20.6715 114.582 42 0 20.6715 114.582 TC 42 19.7955 116.946 2 9 253
1948307N13147 1948 83 WP MM RITA 1948-11-10 12:00:00 TS 20.2333 114.800 main 240 227 O________OO___ jtwc_wp WP221948 20.6000 114.000 40 0 20.6000 114.000 TC 40 19.5000 116.400 2 13 259
1948307N13147 1948 83 WP MM RITA 1948-11-10 15:00:00 TS 20.1304 114.009 main 226 207 P________PP___ WP221948 20.5955 113.076 35 0 20.5955 113.076 TC 35 19.2002 115.876 2 16 260
1948307N13147 1948 83 WP MM RITA 1948-11-10 18:00:00 TS 19.9669 113.124 main 207 136 O________OP___ jtwc_wp WP221948 20.5000 112.000 30 -1 20.5000 112.000 TC 30 18.9006 115.372 2 17 254
1948307N13147 1948 83 WP MM RITA 1948-11-10 21:00:00 TS 19.6739 112.276 main 136 62 P________PP___ WP221948 20.2105 110.974 25 -1 20.2105 110.974 TC 25 18.6006 114.882 2 17 247
1948307N13147 1948 83 WP MM RITA 1948-11-11 00:00:00 TS 19.3000 111.467 main 62 O________OO___ jtwc_wp WP221948 19.8000 110.000 20 -1 19.8000 110.000 TC 20 18.3000 114.400 2 17 244

Digital Typhoon Data and Search

About IBTrACS Database

This database is a web-friendly format of International Best Track Archive for Climate Stewardship (IBTrACS), a global best track data archive curated by NOAA dating back to 1842.

Updated: 2021-12-03